createdAt,value
2018-04-26T00:00:33.562Z,9.48
2018-04-26T00:01:33.537Z,9.48
2018-04-26T00:02:33.513Z,9.36
2018-04-26T00:03:33.486Z,9.44
2018-04-26T00:04:33.460Z,9.43
2018-04-26T00:05:33.432Z,9.36
2018-04-26T00:06:33.410Z,9.44
2018-04-26T00:07:33.379Z,9.37
2018-04-26T00:08:33.354Z,9.29
2018-04-26T00:09:33.337Z,9.47
2018-04-26T00:10:33.299Z,9.43
2018-04-26T00:11:33.276Z,9.40
2018-04-26T00:12:33.247Z,9.44
2018-04-26T00:13:33.225Z,9.46
2018-04-26T00:14:33.197Z,9.43
2018-04-26T00:15:33.172Z,9.46
2018-04-26T00:16:33.150Z,9.41
2018-04-26T00:17:33.114Z,9.51
2018-04-26T00:18:33.093Z,9.48
2018-04-26T00:19:33.070Z,9.50
2018-04-26T00:20:33.033Z,9.55
2018-04-26T00:21:33.016Z,9.48
2018-04-26T00:22:32.982Z,9.54
2018-04-26T00:23:32.950Z,9.54
2018-04-26T00:24:32.934Z,9.51
2018-04-26T00:25:32.899Z,9.54
2018-04-26T00:26:32.880Z,9.58
2018-04-26T00:27:32.855Z,9.55
2018-04-26T00:28:32.822Z,9.51
2018-04-26T00:29:32.794Z,9.64
2018-04-26T00:30:32.767Z,9.56
2018-04-26T00:31:32.744Z,9.62
2018-04-26T00:32:32.718Z,9.66
2018-04-26T00:33:32.695Z,9.66
2018-04-26T00:34:32.661Z,9.74
2018-04-26T00:35:32.639Z,9.72
2018-04-26T00:36:32.609Z,9.73
2018-04-26T00:37:32.587Z,9.68
2018-04-26T00:38:32.557Z,9.74
2018-04-26T00:39:32.532Z,9.83
2018-04-26T00:40:32.506Z,9.83
2018-04-26T00:41:32.478Z,9.87
2018-04-26T00:42:32.454Z,9.91
2018-04-26T00:43:32.428Z,9.82
2018-04-26T00:44:32.401Z,9.91
2018-04-26T00:45:32.371Z,9.89
2018-04-26T00:46:32.348Z,9.84
2018-04-26T00:47:32.321Z,9.86
2018-04-26T00:48:32.293Z,9.82
2018-04-26T00:49:32.271Z,9.83
2018-04-26T00:50:32.240Z,9.83
2018-04-26T00:51:32.211Z,9.86
2018-04-26T00:52:32.189Z,9.86
2018-04-26T00:53:32.166Z,9.87
2018-04-26T00:54:32.135Z,9.86
2018-04-26T00:55:32.107Z,9.89
2018-04-26T00:56:32.080Z,9.91
2018-04-26T00:57:32.051Z,9.95
2018-04-26T00:58:32.034Z,9.97
2018-04-26T00:59:32.014Z,9.92
2018-04-26T01:00:31.974Z,9.80
2018-04-26T01:01:31.950Z,9.84
2018-04-26T01:02:31.921Z,9.94
2018-04-26T01:03:31.894Z,9.86
2018-04-26T01:04:31.878Z,9.80
2018-04-26T01:05:31.844Z,9.86
2018-04-26T01:06:31.819Z,9.84
2018-04-26T01:07:31.792Z,9.83
2018-04-26T01:08:31.762Z,9.86
2018-04-26T01:09:31.739Z,9.86
2018-04-26T01:10:31.716Z,9.82
2018-04-26T01:11:31.684Z,9.97
2018-04-26T01:12:31.658Z,9.87
2018-04-26T01:13:31.635Z,9.87
2018-04-26T01:14:31.602Z,9.80
2018-04-26T01:15:31.585Z,9.94
2018-04-26T01:16:31.552Z,9.86
2018-04-26T01:17:31.526Z,9.95
2018-04-26T01:18:31.498Z,9.97
2018-04-26T01:19:31.473Z,9.94
2018-04-26T01:20:31.448Z,9.97
2018-04-26T01:21:31.423Z,9.91
2018-04-26T01:22:31.394Z,9.86
2018-04-26T01:23:31.371Z,9.84
2018-04-26T01:24:31.342Z,9.82
2018-04-26T01:25:31.321Z,9.74
2018-04-26T01:26:31.284Z,9.83
2018-04-26T01:27:31.256Z,9.72
2018-04-26T01:28:31.238Z,9.73
2018-04-26T01:29:31.207Z,9.74
2018-04-26T01:30:31.188Z,9.65
2018-04-26T01:31:31.152Z,9.74
2018-04-26T01:32:31.128Z,9.69
2018-04-26T01:33:31.102Z,9.74
2018-04-26T01:34:31.075Z,9.68
2018-04-26T01:35:31.049Z,9.72
2018-04-26T01:36:31.023Z,9.76
2018-04-26T01:37:31.003Z,9.74
2018-04-26T01:38:30.966Z,9.76
2018-04-26T01:39:30.945Z,9.64
2018-04-26T01:40:30.917Z,9.72
2018-04-26T01:41:30.894Z,9.74
2018-04-26T01:42:30.863Z,9.66
2018-04-26T01:43:30.840Z,9.66
2018-04-26T01:44:30.811Z,9.66
2018-04-26T01:45:30.781Z,9.59
2018-04-26T01:46:30.764Z,9.66
2018-04-26T01:47:30.731Z,9.77
2018-04-26T01:48:30.708Z,9.64
2018-04-26T01:49:30.675Z,9.61
2018-04-26T01:50:30.656Z,9.64
2018-04-26T01:51:30.629Z,9.62
2018-04-26T01:52:30.596Z,9.65
2018-04-26T01:53:30.577Z,9.76
2018-04-26T01:54:30.543Z,9.66
2018-04-26T01:55:30.514Z,9.77
2018-04-26T01:56:30.498Z,9.72
2018-04-26T01:57:30.464Z,9.76
2018-04-26T01:58:30.445Z,9.79
2018-04-26T01:59:30.417Z,9.86
2018-04-26T02:00:30.383Z,9.77
2018-04-26T02:01:30.365Z,9.89
2018-04-26T02:02:30.335Z,9.82
2018-04-26T02:03:30.309Z,9.86
2018-04-26T02:04:30.284Z,9.87
2018-04-26T02:05:30.255Z,9.94
2018-04-26T02:06:30.230Z,9.83
2018-04-26T02:07:30.206Z,9.87
2018-04-26T02:08:30.172Z,9.92
2018-04-26T02:09:30.146Z,9.92
2018-04-26T02:10:30.119Z,9.89
2018-04-26T02:11:30.095Z,9.87
2018-04-26T02:12:30.079Z,9.97
2018-04-26T02:13:30.042Z,9.99
2018-04-26T02:14:30.018Z,9.99
2018-04-26T02:15:29.991Z,9.98
2018-04-26T02:16:29.962Z,10.01
2018-04-26T02:17:29.940Z,9.99
2018-04-26T02:18:29.908Z,10.02
2018-04-26T02:19:29.880Z,10.02
2018-04-26T02:20:29.857Z,10.05
2018-04-26T02:21:29.833Z,10.10
2018-04-26T02:22:29.810Z,10.12
2018-04-26T02:23:29.780Z,9.94
2018-04-26T02:24:29.751Z,10.02
2018-04-26T02:25:29.723Z,10.16
2018-04-26T02:26:29.699Z,10.10
2018-04-26T02:27:29.673Z,10.09
2018-04-26T02:28:29.649Z,10.09
2018-04-26T02:29:29.621Z,10.10
2018-04-26T02:30:29.592Z,10.09
2018-04-26T02:31:29.570Z,10.09
2018-04-26T02:32:29.541Z,10.09
2018-04-26T02:33:29.514Z,10.10
2018-04-26T02:34:29.488Z,10.01
2018-04-26T02:35:29.532Z,10.04
2018-04-26T02:36:29.434Z,10.04
2018-04-26T02:37:29.425Z,10.05
2018-04-26T02:38:29.376Z,10.05
2018-04-26T02:39:29.349Z,10.02
2018-04-26T02:40:29.337Z,10.09
2018-04-26T02:41:29.301Z,10.01
2018-04-26T02:42:29.295Z,10.02
2018-04-26T02:43:29.245Z,9.97
2018-04-26T02:44:29.223Z,10.04
2018-04-26T02:45:29.204Z,10.07
2018-04-26T02:46:29.161Z,10.01
2018-04-26T02:47:29.136Z,10.04
2018-04-26T02:48:29.119Z,10.09
2018-04-26T02:49:29.086Z,10.10
2018-04-26T02:50:29.066Z,10.10
2018-04-26T02:51:29.038Z,10.07
2018-04-26T02:52:29.011Z,10.02
2018-04-26T02:53:28.977Z,9.99
2018-04-26T02:54:28.965Z,9.91
2018-04-26T02:55:28.932Z,9.98
2018-04-26T02:56:28.900Z,9.95
2018-04-26T02:57:28.877Z,10.01
2018-04-26T02:58:28.843Z,10.05
2018-04-26T02:59:28.817Z,10.05
2018-04-26T03:00:28.801Z,9.99
2018-04-26T03:01:28.771Z,9.98
2018-04-26T03:02:28.744Z,10.05
2018-04-26T03:03:28.716Z,9.98
2018-04-26T03:04:28.695Z,10.01
2018-04-26T03:05:28.665Z,10.07
2018-04-26T03:06:28.641Z,9.98
2018-04-26T03:07:28.614Z,9.98
2018-04-26T03:08:28.587Z,9.97
2018-04-26T03:09:28.561Z,9.97
2018-04-26T03:10:28.533Z,10.04
2018-04-26T03:11:28.505Z,10.05
2018-04-26T03:12:28.477Z,10.04
2018-04-26T03:13:28.447Z,10.04
2018-04-26T03:14:28.424Z,9.97
2018-04-26T03:15:28.396Z,10.09
2018-04-26T03:16:28.377Z,9.95
2018-04-26T03:17:28.350Z,9.77
2018-04-26T03:18:28.314Z,9.76
2018-04-26T03:19:28.295Z,9.59
2018-04-26T03:20:28.264Z,9.55
2018-04-26T03:21:28.235Z,9.59
2018-04-26T03:22:28.216Z,9.51
2018-04-26T03:23:28.184Z,9.51
2018-04-26T03:24:28.167Z,9.48
2018-04-26T03:25:28.135Z,9.48
2018-04-26T03:26:28.117Z,9.51
2018-04-26T03:27:28.139Z,9.43
2018-04-26T03:28:28.056Z,9.31
2018-04-26T03:29:28.026Z,9.21
2018-04-26T03:30:28.008Z,8.89
2018-04-26T03:31:28.069Z,8.89
2018-04-26T03:32:27.950Z,8.70
2018-04-26T03:33:27.917Z,8.70
2018-04-26T03:34:27.899Z,8.52
2018-04-26T03:35:27.870Z,8.51
2018-04-26T03:36:27.838Z,8.49
2018-04-26T03:37:27.886Z,8.45
2018-04-26T03:38:27.783Z,8.45
2018-04-26T03:39:27.758Z,8.55
2018-04-26T03:40:27.731Z,8.46
2018-04-26T03:41:27.707Z,8.42
2018-04-26T03:42:27.677Z,8.38
2018-04-26T03:43:27.650Z,8.53
2018-04-26T03:44:27.636Z,8.38
2018-04-26T03:45:27.604Z,8.46
2018-04-26T03:46:27.576Z,8.48
2018-04-26T03:47:27.552Z,8.51
2018-04-26T03:48:27.519Z,8.53
2018-04-26T03:49:27.495Z,8.51
2018-04-26T03:50:27.471Z,8.48
2018-04-26T03:51:27.438Z,8.53
2018-04-26T03:52:27.419Z,8.53
2018-04-26T03:53:27.389Z,8.52
2018-04-26T03:54:27.361Z,8.51
2018-04-26T03:55:27.336Z,8.52
2018-04-26T03:56:27.315Z,8.61
2018-04-26T03:57:27.277Z,8.64
2018-04-26T03:58:27.288Z,8.58
2018-04-26T03:59:27.234Z,8.49
2018-04-26T04:00:27.233Z,8.51
2018-04-26T04:01:27.173Z,8.53
2018-04-26T04:02:27.148Z,8.53
2018-04-26T04:03:27.125Z,8.58
2018-04-26T04:04:27.094Z,8.61
2018-04-26T04:05:27.071Z,8.56
2018-04-26T04:06:27.057Z,8.58
2018-04-26T04:07:27.014Z,8.53
2018-04-26T04:08:26.988Z,8.55
2018-04-26T04:09:26.960Z,8.56
2018-04-26T04:10:26.937Z,8.55
2018-04-26T04:11:26.907Z,8.52
2018-04-26T04:12:26.880Z,8.55
2018-04-26T04:13:26.863Z,8.55
2018-04-26T04:14:26.829Z,8.58
2018-04-26T04:15:26.799Z,8.58
2018-04-26T04:16:26.780Z,8.56
2018-04-26T04:17:26.755Z,8.55
2018-04-26T04:18:26.731Z,8.63
2018-04-26T04:19:26.694Z,8.58
2018-04-26T04:20:26.670Z,8.60
2018-04-26T04:21:26.643Z,8.56
2018-04-26T04:22:26.619Z,8.64
2018-04-26T04:23:26.591Z,8.56
2018-04-26T04:24:26.561Z,8.67
2018-04-26T04:25:26.537Z,8.66
2018-04-26T04:26:26.508Z,8.66
2018-04-26T04:27:26.482Z,8.67
2018-04-26T04:28:26.457Z,8.70
2018-04-26T04:29:26.425Z,8.71
2018-04-26T04:30:26.410Z,8.74
2018-04-26T04:31:26.373Z,8.79
2018-04-26T04:32:26.347Z,8.78
2018-04-26T04:33:26.324Z,8.76
2018-04-26T04:34:26.297Z,8.76
2018-04-26T04:35:26.265Z,8.91
2018-04-26T04:36:26.245Z,8.92
2018-04-26T04:37:26.215Z,8.87
2018-04-26T04:38:26.187Z,8.85
2018-04-26T04:39:26.166Z,8.79
2018-04-26T04:40:26.131Z,8.88
2018-04-26T04:41:26.109Z,8.94
2018-04-26T04:42:26.084Z,9.00
2018-04-26T04:43:26.061Z,9.04
2018-04-26T04:44:26.026Z,9.00
2018-04-26T04:45:26.002Z,8.95
2018-04-26T04:46:25.978Z,9.00
2018-04-26T04:47:25.944Z,9.00
2018-04-26T04:48:25.926Z,9.11
2018-04-26T04:49:25.899Z,9.10
2018-04-26T04:50:25.868Z,9.03
2018-04-26T04:51:25.845Z,9.13
2018-04-26T04:52:25.813Z,9.19
2018-04-26T04:53:25.793Z,9.16
2018-04-26T04:54:25.758Z,9.21
2018-04-26T04:55:25.735Z,9.23
2018-04-26T04:56:25.714Z,9.22
2018-04-26T04:57:25.679Z,9.26
2018-04-26T04:58:25.660Z,9.25
2018-04-26T04:59:25.632Z,9.26
2018-04-26T05:00:25.605Z,9.31
2018-04-26T05:01:25.581Z,9.37
2018-04-26T05:02:25.557Z,9.32
2018-04-26T05:03:25.527Z,9.39
2018-04-26T05:04:25.539Z,9.36
2018-04-26T05:05:25.467Z,9.39
2018-04-26T05:06:25.439Z,9.37
2018-04-26T05:07:25.446Z,9.39
2018-04-26T05:08:25.394Z,9.37
2018-04-26T05:09:25.361Z,9.28
2018-04-26T05:10:25.340Z,9.40
2018-04-26T05:11:25.313Z,9.34
2018-04-26T05:12:25.281Z,9.34
2018-04-26T05:13:25.261Z,9.37
2018-04-26T05:14:25.226Z,9.37
2018-04-26T05:15:25.199Z,9.34
2018-04-26T05:16:25.171Z,9.31
2018-04-26T05:17:25.155Z,9.36
2018-04-26T05:18:25.120Z,9.37
2018-04-26T05:19:25.095Z,9.34
2018-04-26T05:20:25.074Z,9.37
2018-04-26T05:21:25.047Z,9.39
2018-04-26T05:22:25.023Z,9.31
2018-04-26T05:23:24.993Z,9.29
2018-04-26T05:24:24.961Z,9.36
2018-04-26T05:25:24.938Z,9.39
2018-04-26T05:26:24.915Z,9.37
2018-04-26T05:27:24.885Z,9.40
2018-04-26T05:28:24.864Z,9.43
2018-04-26T05:29:24.837Z,9.37
2018-04-26T05:30:24.801Z,9.41
2018-04-26T05:31:24.777Z,9.41
2018-04-26T05:32:24.748Z,9.36
2018-04-26T05:33:24.722Z,9.36
2018-04-26T05:34:24.706Z,9.39
2018-04-26T05:35:24.669Z,9.37
2018-04-26T05:36:24.645Z,9.31
2018-04-26T05:37:24.623Z,9.23
2018-04-26T05:38:24.592Z,9.16
2018-04-26T05:39:24.565Z,9.03
2018-04-26T05:40:24.536Z,8.99
2018-04-26T05:41:24.509Z,8.88
2018-04-26T05:42:24.489Z,8.81
2018-04-26T05:43:24.456Z,8.82
2018-04-26T05:44:24.433Z,8.76
2018-04-26T05:45:24.409Z,8.70
2018-04-26T05:46:24.372Z,8.64
2018-04-26T05:47:24.370Z,8.52
2018-04-26T05:48:24.321Z,8.45
2018-04-26T05:49:24.297Z,8.42
2018-04-26T05:50:24.273Z,8.31
2018-04-26T05:51:24.240Z,8.16
2018-04-26T05:52:24.271Z,8.06
2018-04-26T05:53:24.192Z,8.08
2018-04-26T05:54:24.164Z,8.09
2018-04-26T05:55:24.133Z,8.05
2018-04-26T05:56:24.116Z,8.10
2018-04-26T05:57:24.117Z,8.06
2018-04-26T05:58:24.057Z,7.97
2018-04-26T05:59:24.035Z,8.05
2018-04-26T06:00:24.001Z,7.94
2018-04-26T06:01:23.976Z,8.00
2018-04-26T06:02:24.021Z,7.98
2018-04-26T06:03:23.991Z,7.95
2018-04-26T06:04:23.897Z,7.91
2018-04-26T06:05:23.875Z,7.95
2018-04-26T06:06:23.846Z,8.00
2018-04-26T06:07:23.815Z,7.82
2018-04-26T06:08:23.794Z,7.83
2018-04-26T06:09:23.911Z,7.83
2018-04-26T06:10:23.737Z,7.75
2018-04-26T06:11:23.712Z,7.70
2018-04-26T06:12:23.733Z,7.66
2018-04-26T06:13:23.657Z,7.66
2018-04-26T06:14:23.635Z,7.69
2018-04-26T06:15:23.604Z,7.54
2018-04-26T06:16:23.581Z,7.56
2018-04-26T06:17:23.549Z,7.54
2018-04-26T06:18:23.525Z,7.53
2018-04-26T06:19:23.493Z,7.57
2018-04-26T06:20:23.470Z,7.50
2018-04-26T06:21:23.448Z,7.47
2018-04-26T06:22:23.414Z,7.50
2018-04-26T06:23:23.386Z,7.42
2018-04-26T06:24:23.368Z,7.45
2018-04-26T06:25:23.340Z,7.51
2018-04-26T06:26:23.310Z,7.42
2018-04-26T06:27:23.279Z,7.43
2018-04-26T06:28:23.269Z,7.47
2018-04-26T06:29:23.228Z,7.32
2018-04-26T06:30:23.215Z,7.35
2018-04-26T06:31:23.173Z,7.35
2018-04-26T06:32:23.154Z,7.40
2018-04-26T06:33:23.121Z,7.40
2018-04-26T06:34:23.096Z,7.43
2018-04-26T06:35:23.074Z,7.40
2018-04-26T06:36:23.044Z,7.42
2018-04-26T06:37:23.019Z,7.50
2018-04-26T06:38:22.992Z,7.50
2018-04-26T06:39:22.957Z,7.42
2018-04-26T06:40:22.931Z,7.33
2018-04-26T06:41:22.905Z,7.45
2018-04-26T06:42:22.983Z,7.45
2018-04-26T06:43:22.856Z,7.45
2018-04-26T06:44:22.828Z,7.43
2018-04-26T06:45:22.803Z,7.47
2018-04-26T06:46:22.768Z,7.50
2018-04-26T06:47:22.739Z,7.63
2018-04-26T06:48:22.721Z,7.76
2018-04-26T06:49:22.689Z,7.70
2018-04-26T06:50:22.670Z,7.80
2018-04-26T06:51:22.639Z,7.83
2018-04-26T06:52:22.609Z,7.80
2018-04-26T06:53:22.651Z,7.82
2018-04-26T06:54:22.563Z,7.90
2018-04-26T06:55:22.528Z,7.93
2018-04-26T06:56:22.502Z,8.05
2018-04-26T06:57:22.477Z,8.03
2018-04-26T06:58:22.454Z,8.01
2018-04-26T06:59:22.419Z,7.98
2018-04-26T07:00:22.421Z,8.08
2018-04-26T07:01:22.365Z,8.01
2018-04-26T07:02:22.348Z,7.98
2018-04-26T07:03:22.322Z,7.98
2018-04-26T07:04:22.289Z,8.03
2018-04-26T07:05:22.270Z,8.03
2018-04-26T07:06:22.234Z,8.09
2018-04-26T07:07:22.210Z,8.03
2018-04-26T07:08:22.182Z,8.13
2018-04-26T07:09:22.155Z,8.10
2018-04-26T07:10:22.134Z,8.20
2018-04-26T07:11:22.101Z,8.12
2018-04-26T07:12:22.081Z,8.12
2018-04-26T07:13:22.049Z,8.03
2018-04-26T07:14:22.022Z,8.06
2018-04-26T07:15:22.071Z,8.01
2018-04-26T07:16:21.964Z,8.08
2018-04-26T07:17:21.949Z,7.94
2018-04-26T07:18:21.914Z,8.01
2018-04-26T07:19:21.888Z,8.12
2018-04-26T07:20:21.867Z,8.10
2018-04-26T07:21:21.832Z,8.09
2018-04-26T07:22:21.812Z,8.13
2018-04-26T07:23:21.779Z,8.13
2018-04-26T07:24:21.755Z,8.18
2018-04-26T07:25:21.730Z,8.24
2018-04-26T07:26:21.702Z,8.26
2018-04-26T07:27:21.674Z,8.33
2018-04-26T07:28:21.649Z,8.41
2018-04-26T07:29:21.628Z,8.42
2018-04-26T07:30:21.600Z,8.37
2018-04-26T07:31:21.569Z,8.42
2018-04-26T07:32:21.546Z,8.51
2018-04-26T07:33:21.517Z,8.63
2018-04-26T07:34:21.490Z,8.71
2018-04-26T07:35:21.465Z,8.82
2018-04-26T07:36:21.430Z,8.87
2018-04-26T07:37:21.408Z,8.85
2018-04-26T07:38:21.387Z,8.91
2018-04-26T07:39:21.358Z,8.88
2018-04-26T07:40:21.330Z,8.74
2018-04-26T07:41:21.313Z,8.82
2018-04-26T07:42:21.278Z,8.84
2018-04-26T07:43:21.253Z,8.87
2018-04-26T07:44:21.224Z,8.91
2018-04-26T07:45:21.190Z,8.84
2018-04-26T07:46:21.172Z,8.92
2018-04-26T07:47:21.139Z,8.82
2018-04-26T07:48:21.119Z,8.97
2018-04-26T07:49:21.088Z,8.99
2018-04-26T07:50:21.088Z,9.13
2018-04-26T07:51:21.038Z,9.13
2018-04-26T07:52:21.010Z,9.10
2018-04-26T07:53:20.997Z,9.14
2018-04-26T07:54:20.955Z,9.14
2018-04-26T07:55:21.016Z,9.08
2018-04-26T07:56:20.906Z,9.10
2018-04-26T07:57:20.876Z,9.14
2018-04-26T07:58:20.854Z,9.19
2018-04-26T07:59:20.831Z,9.37
2018-04-26T08:00:20.791Z,9.44
2018-04-26T08:01:20.767Z,9.54
2018-04-26T08:02:20.738Z,9.54
2018-04-26T08:03:20.717Z,9.47
2018-04-26T08:04:20.688Z,9.62
2018-04-26T08:05:20.659Z,9.79
2018-04-26T08:06:20.641Z,9.77
2018-04-26T08:07:20.610Z,9.68
2018-04-26T08:08:20.584Z,9.76
2018-04-26T08:09:20.561Z,9.87
2018-04-26T08:10:20.524Z,9.82
2018-04-26T08:11:20.573Z,9.82
2018-04-26T08:12:20.474Z,9.94
2018-04-26T08:13:20.449Z,9.97
2018-04-26T08:14:20.424Z,10.01
2018-04-26T08:15:20.393Z,10.04
2018-04-26T08:16:20.379Z,10.07
2018-04-26T08:17:20.350Z,10.07
2018-04-26T08:18:20.319Z,10.05
2018-04-26T08:19:20.296Z,10.16
2018-04-26T08:20:20.260Z,10.15
2018-04-26T08:21:20.238Z,10.22
2018-04-26T08:22:20.214Z,10.28
2018-04-26T08:23:20.406Z,10.30
2018-04-26T08:24:20.166Z,10.41
2018-04-26T08:25:20.135Z,10.38
2018-04-26T08:26:20.107Z,10.46
2018-04-26T08:27:20.083Z,10.49
2018-04-26T08:28:20.053Z,10.51
2018-04-26T08:29:20.042Z,10.35
2018-04-26T08:30:20.011Z,10.37
2018-04-26T08:31:19.973Z,10.28
2018-04-26T08:32:19.955Z,10.38
2018-04-26T08:33:19.927Z,10.22
2018-04-26T08:34:19.895Z,10.23
2018-04-26T08:35:19.871Z,10.05
2018-04-26T08:36:19.842Z,10.05
2018-04-26T08:37:19.819Z,10.04
2018-04-26T08:38:19.791Z,9.92
2018-04-26T08:39:19.766Z,9.95
2018-04-26T08:40:19.741Z,9.83
2018-04-26T08:41:19.711Z,9.76
2018-04-26T08:42:19.687Z,9.72
2018-04-26T08:43:19.664Z,9.73
2018-04-26T08:44:19.630Z,9.77
2018-04-26T08:45:19.612Z,9.76
2018-04-26T08:46:19.585Z,9.79
2018-04-26T08:47:19.553Z,9.79
2018-04-26T08:48:19.527Z,9.87
2018-04-26T08:49:19.499Z,9.80
2018-04-26T08:50:19.479Z,9.84
2018-04-26T08:51:19.448Z,9.82
2018-04-26T08:52:19.508Z,9.80
2018-04-26T08:53:19.395Z,9.83
2018-04-26T08:54:19.378Z,9.80
2018-04-26T08:55:19.347Z,9.87
2018-04-26T08:56:19.316Z,9.86
2018-04-26T08:57:19.295Z,9.86
2018-04-26T08:58:19.263Z,9.95
2018-04-26T08:59:19.276Z,9.99
2018-04-26T09:00:19.234Z,10.04
2018-04-26T09:01:19.182Z,10.09
2018-04-26T09:02:19.157Z,10.13
2018-04-26T09:03:19.136Z,10.17
2018-04-26T09:04:19.114Z,10.30
2018-04-26T09:05:19.085Z,10.30
2018-04-26T09:06:19.051Z,10.40
2018-04-26T09:07:19.022Z,10.38
2018-04-26T09:08:19.004Z,10.38
2018-04-26T09:09:18.970Z,10.35
2018-04-26T09:10:18.953Z,10.41
2018-04-26T09:11:18.924Z,10.53
2018-04-26T09:12:18.890Z,10.54
2018-04-26T09:13:18.875Z,10.67
2018-04-26T09:14:18.837Z,10.64
2018-04-26T09:15:18.820Z,10.53
2018-04-26T09:16:18.787Z,10.49
2018-04-26T09:17:18.763Z,10.51
2018-04-26T09:18:18.744Z,10.38
2018-04-26T09:19:18.715Z,10.40
2018-04-26T09:20:18.695Z,10.40
2018-04-26T09:21:18.660Z,10.48
2018-04-26T09:22:18.630Z,10.34
2018-04-26T09:23:18.606Z,10.37
2018-04-26T09:24:18.580Z,10.51
2018-04-26T09:25:18.557Z,10.44
2018-04-26T09:26:18.523Z,10.59
2018-04-26T09:27:18.504Z,10.54
2018-04-26T09:28:18.500Z,10.67
2018-04-26T09:29:18.445Z,10.75
2018-04-26T09:30:18.427Z,10.81
2018-04-26T09:31:18.424Z,10.75
2018-04-26T09:32:18.368Z,10.76
2018-04-26T09:33:18.347Z,10.90
2018-04-26T09:34:18.323Z,10.94
2018-04-26T09:35:18.290Z,10.99
2018-04-26T09:36:18.267Z,11.11
2018-04-26T09:37:18.244Z,11.17
2018-04-26T09:38:18.212Z,11.11
2018-04-26T09:39:18.189Z,11.15
2018-04-26T09:40:18.159Z,11.22
2018-04-26T09:41:18.134Z,11.25
2018-04-26T09:42:18.114Z,11.12
2018-04-26T09:43:18.083Z,11.12
2018-04-26T09:44:18.058Z,11.12
2018-04-26T09:45:18.037Z,11.11
2018-04-26T09:46:18.009Z,11.10
2018-04-26T09:47:17.988Z,11.14
2018-04-26T09:48:17.955Z,11.17
2018-04-26T09:49:17.931Z,11.23
2018-04-26T09:50:17.904Z,11.26
2018-04-26T09:51:17.876Z,11.26
2018-04-26T09:52:17.846Z,11.30
2018-04-26T09:53:17.818Z,11.43
2018-04-26T09:54:17.801Z,11.51
2018-04-26T09:55:17.774Z,11.52
2018-04-26T09:56:17.740Z,11.73
2018-04-26T09:57:17.723Z,11.78
2018-04-26T09:58:17.762Z,11.84
2018-04-26T09:59:17.663Z,11.81
2018-04-26T10:00:17.645Z,11.97
2018-04-26T10:01:17.609Z,11.94
2018-04-26T10:02:17.595Z,11.99
2018-04-26T10:03:17.559Z,12.06
2018-04-26T10:04:17.534Z,12.12
2018-04-26T10:05:17.513Z,12.24
2018-04-26T10:06:17.484Z,12.27
2018-04-26T10:07:17.474Z,12.25
2018-04-26T10:08:17.433Z,12.09
2018-04-26T10:09:17.410Z,12.09
2018-04-26T10:10:17.382Z,12.09
2018-04-26T10:11:17.356Z,12.06
2018-04-26T10:12:17.323Z,12.15
2018-04-26T10:13:17.299Z,12.09
2018-04-26T10:14:17.280Z,12.13
2018-04-26T10:15:18.112Z,12.27
2018-04-26T10:16:17.294Z,12.29
2018-04-26T10:17:17.232Z,12.25
2018-04-26T10:18:17.175Z,12.20
2018-04-26T10:19:17.142Z,12.20
2018-04-26T10:20:17.126Z,12.32
2018-04-26T10:21:17.097Z,12.42
2018-04-26T10:22:17.069Z,12.43
2018-04-26T10:23:17.046Z,12.54
2018-04-26T10:24:17.014Z,12.54
2018-04-26T10:25:16.989Z,12.60
2018-04-26T10:26:16.974Z,12.78
2018-04-26T10:27:16.940Z,12.64
2018-04-26T10:28:16.915Z,12.68
2018-04-26T10:29:16.883Z,12.68
2018-04-26T10:30:16.868Z,12.67
2018-04-26T10:31:16.834Z,12.72
2018-04-26T10:32:16.805Z,12.67
2018-04-26T10:33:16.785Z,12.58
2018-04-26T10:34:16.757Z,12.50
2018-04-26T10:35:16.741Z,12.53
2018-04-26T10:36:16.708Z,12.54
2018-04-26T10:37:16.685Z,12.61
2018-04-26T10:38:16.659Z,12.49
2018-04-26T10:39:16.632Z,12.58
2018-04-26T10:40:16.603Z,12.68
2018-04-26T10:41:16.579Z,12.68
2018-04-26T10:42:16.553Z,12.70
2018-04-26T10:43:16.524Z,12.80
2018-04-26T10:44:16.582Z,12.76
2018-04-26T10:45:16.480Z,12.79
2018-04-26T10:46:16.454Z,12.70
2018-04-26T10:47:16.425Z,12.65
2018-04-26T10:48:16.404Z,12.78
2018-04-26T10:49:16.373Z,12.87
2018-04-26T10:50:16.356Z,12.90
2018-04-26T10:51:16.318Z,12.97
2018-04-26T10:52:16.302Z,12.95
2018-04-26T10:53:16.267Z,13.00
2018-04-26T10:54:16.249Z,13.00
2018-04-26T10:55:16.226Z,13.01
2018-04-26T10:56:16.190Z,12.98
2018-04-26T10:57:16.173Z,12.97
2018-04-26T10:58:16.140Z,13.01
2018-04-26T10:59:16.115Z,13.09
2018-04-26T11:00:16.096Z,13.19
2018-04-26T11:01:16.063Z,13.08
2018-04-26T11:02:16.039Z,13.18
2018-04-26T11:03:16.015Z,13.16
2018-04-26T11:04:15.991Z,13.19
2018-04-26T11:05:15.967Z,13.16
2018-04-26T11:06:15.935Z,13.20
2018-04-26T11:07:15.918Z,13.13
2018-04-26T11:08:15.882Z,13.12
2018-04-26T11:09:15.942Z,12.95
2018-04-26T11:10:15.832Z,13.12
2018-04-26T11:11:15.808Z,13.15
2018-04-26T11:12:15.788Z,13.18
2018-04-26T11:13:15.755Z,13.18
2018-04-26T11:14:15.736Z,13.18
2018-04-26T11:15:15.705Z,13.22
2018-04-26T11:16:15.681Z,13.20
2018-04-26T11:17:15.785Z,13.38
2018-04-26T11:18:15.737Z,13.49
2018-04-26T11:19:15.626Z,13.44
2018-04-26T11:20:15.607Z,13.42
2018-04-26T11:21:15.607Z,13.46
2018-04-26T11:22:15.534Z,13.41
2018-04-26T11:23:15.503Z,13.38
2018-04-26T11:24:15.477Z,13.42
2018-04-26T11:25:15.452Z,13.44
2018-04-26T11:26:15.422Z,13.37
2018-04-26T11:27:15.395Z,13.49
2018-04-26T11:28:15.394Z,13.54
2018-04-26T11:29:15.406Z,13.35
2018-04-26T11:30:15.325Z,13.46
2018-04-26T11:31:15.323Z,13.37
2018-04-26T11:32:15.276Z,13.42
2018-04-26T11:33:15.241Z,13.38
2018-04-26T11:34:15.224Z,13.33
2018-04-26T11:35:15.192Z,13.46
2018-04-26T11:36:15.163Z,13.39
2018-04-26T11:37:15.142Z,13.47
2018-04-26T11:38:15.114Z,13.56
2018-04-26T11:39:15.105Z,13.56
2018-04-26T11:40:15.112Z,13.57
2018-04-26T11:41:15.049Z,13.72
2018-04-26T11:42:15.013Z,13.72
2018-04-26T11:43:14.987Z,13.85
2018-04-26T11:44:14.968Z,13.89
2018-04-26T11:45:14.936Z,13.95
2018-04-26T11:46:14.918Z,13.81
2018-04-26T11:47:14.885Z,13.75
2018-04-26T11:48:14.864Z,13.78
2018-04-26T11:49:14.841Z,13.72
2018-04-26T11:50:14.813Z,13.68
2018-04-26T11:51:14.791Z,13.60
2018-04-26T11:52:14.824Z,13.56
2018-04-26T11:53:14.771Z,13.56
2018-04-26T11:54:14.715Z,13.54
2018-04-26T11:55:14.683Z,13.47
2018-04-26T11:56:14.752Z,13.47
2018-04-26T11:57:14.649Z,13.60
2018-04-26T11:58:14.607Z,13.57
2018-04-26T11:59:14.587Z,13.62
2018-04-26T12:00:14.555Z,13.72
2018-04-26T12:01:14.531Z,13.65
2018-04-26T12:02:14.554Z,13.70
2018-04-26T12:03:14.477Z,13.77
2018-04-26T12:04:14.460Z,13.79
2018-04-26T12:05:14.425Z,13.86
2018-04-26T12:06:14.403Z,13.83
2018-04-26T12:07:14.383Z,13.86
2018-04-26T12:08:14.359Z,13.77
2018-04-26T12:09:14.333Z,13.63
2018-04-26T12:10:14.322Z,13.54
2018-04-26T12:11:14.283Z,13.57
2018-04-26T12:12:14.252Z,13.53
2018-04-26T12:13:14.263Z,13.52
2018-04-26T12:14:14.226Z,13.65
2018-04-26T12:15:14.184Z,13.56
2018-04-26T12:16:14.148Z,13.68
2018-04-26T12:17:14.127Z,13.71
2018-04-26T12:18:14.097Z,13.81
2018-04-26T12:19:14.077Z,13.87
2018-04-26T12:20:14.045Z,14.03
2018-04-26T12:21:14.022Z,13.97
2018-04-26T12:22:13.998Z,14.05
2018-04-26T12:23:13.989Z,14.14
2018-04-26T12:24:13.943Z,14.15
2018-04-26T12:25:13.922Z,14.14
2018-04-26T12:26:13.895Z,14.25
2018-04-26T12:27:13.871Z,14.15
2018-04-26T12:28:13.842Z,14.11
2018-04-26T12:29:13.884Z,14.05
2018-04-26T12:30:13.813Z,14.04
2018-04-26T12:31:13.796Z,13.97
2018-04-26T12:32:13.745Z,13.99
2018-04-26T12:33:13.719Z,14.05
2018-04-26T12:34:13.689Z,13.99
2018-04-26T12:35:13.688Z,14.05
2018-04-26T12:36:13.646Z,14.11
2018-04-26T12:37:13.616Z,14.17
2018-04-26T12:38:13.588Z,14.26
2018-04-26T12:39:13.567Z,14.26
2018-04-26T12:40:13.539Z,14.29
2018-04-26T12:41:13.518Z,14.36
2018-04-26T12:42:13.579Z,14.47
2018-04-26T12:43:13.459Z,14.36
2018-04-26T12:44:13.437Z,14.40
2018-04-26T12:45:13.414Z,14.45
2018-04-26T12:46:13.380Z,14.66
2018-04-26T12:47:13.361Z,14.69
2018-04-26T12:48:13.332Z,14.79
2018-04-26T12:49:13.303Z,15.00
2018-04-26T12:50:13.358Z,14.92
2018-04-26T12:51:13.282Z,14.99
2018-04-26T12:52:13.231Z,15.02
2018-04-26T12:53:13.211Z,14.92
2018-04-26T12:54:13.175Z,14.99
2018-04-26T12:55:13.155Z,14.96
2018-04-26T12:56:13.137Z,14.85
2018-04-26T12:57:13.107Z,14.84
2018-04-26T12:58:13.129Z,14.68
2018-04-26T12:59:13.054Z,14.73
2018-04-26T13:00:13.028Z,14.73
2018-04-26T13:01:13.001Z,14.84
2018-04-26T13:02:12.981Z,14.88
2018-04-26T13:03:12.950Z,14.94
2018-04-26T13:04:12.926Z,15.17
2018-04-26T13:05:12.905Z,15.15
2018-04-26T13:06:12.879Z,15.24
2018-04-26T13:07:12.851Z,15.29